sensor_id;sensor_type;location;lat;lon;timestamp;P1;durP1;ratioP1;P2;durP2;ratioP2
52438;SDS011;38359;53.150;6.504;2022-10-15T00:08:15;138.88;;;61.08;;
52438;SDS011;38359;53.150;6.504;2022-10-15T00:18:41;132.68;;;64.18;;
52438;SDS011;38359;53.150;6.504;2022-10-15T00:29:07;122.88;;;61.35;;
52438;SDS011;38359;53.150;6.504;2022-10-15T00:39:33;134.80;;;64.65;;
52438;SDS011;38359;53.150;6.504;2022-10-15T00:50:02;139.77;;;66.63;;
52438;SDS011;38359;53.150;6.504;2022-10-15T01:00:46;136.20;;;63.42;;
52438;SDS011;38359;53.150;6.504;2022-10-15T01:21:53;134.27;;;60.63;;
52438;SDS011;38359;53.150;6.504;2022-10-15T01:32:35;128.18;;;59.25;;
52438;SDS011;38359;53.150;6.504;2022-10-15T01:43:10;127.43;;;59.22;;
52438;SDS011;38359;53.150;6.504;2022-10-15T01:53:48;127.05;;;56.63;;
52438;SDS011;38359;53.150;6.504;2022-10-15T02:04:24;128.25;;;56.47;;
52438;SDS011;38359;53.150;6.504;2022-10-15T02:15:39;121.55;;;55.00;;
52438;SDS011;38359;53.150;6.504;2022-10-15T02:25:38;123.05;;;57.97;;
52438;SDS011;38359;53.150;6.504;2022-10-15T02:36:05;122.63;;;55.70;;
52438;SDS011;38359;53.150;6.504;2022-10-15T02:46:32;115.07;;;53.72;;
52438;SDS011;38359;53.150;6.504;2022-10-15T02:56:58;117.75;;;54.55;;
52438;SDS011;38359;53.150;6.504;2022-10-15T03:07:24;116.72;;;55.10;;
52438;SDS011;38359;53.150;6.504;2022-10-15T03:17:50;103.72;;;52.42;;
52438;SDS011;38359;53.150;6.504;2022-10-15T03:28:16;112.20;;;52.65;;
52438;SDS011;38359;53.150;6.504;2022-10-15T03:38:41;107.38;;;54.83;;
52438;SDS011;38359;53.150;6.504;2022-10-15T03:49:07;110.05;;;56.03;;
52438;SDS011;38359;53.150;6.504;2022-10-15T03:59:33;120.47;;;56.55;;
52438;SDS011;38359;53.150;6.504;2022-10-15T04:09:59;113.43;;;54.15;;
52438;SDS011;38359;53.150;6.504;2022-10-15T04:20:24;131.45;;;58.95;;
52438;SDS011;38359;53.150;6.504;2022-10-15T04:30:50;136.40;;;58.13;;
52438;SDS011;38359;53.150;6.504;2022-10-15T04:41:20;137.35;;;60.03;;
52438;SDS011;38359;53.150;6.504;2022-10-15T04:51:46;140.35;;;59.80;;
52438;SDS011;38359;53.150;6.504;2022-10-15T05:02:12;120.88;;;56.10;;
52438;SDS011;38359;53.150;6.504;2022-10-15T05:12:38;128.52;;;59.50;;
52438;SDS011;38359;53.150;6.504;2022-10-15T05:23:03;130.30;;;57.88;;
52438;SDS011;38359;53.150;6.504;2022-10-15T05:33:30;131.88;;;58.25;;
52438;SDS011;38359;53.150;6.504;2022-10-15T05:43:56;142.05;;;63.83;;
52438;SDS011;38359;53.150;6.504;2022-10-15T05:54:23;136.48;;;65.95;;
52438;SDS011;38359;53.150;6.504;2022-10-15T06:04:48;156.95;;;67.00;;
52438;SDS011;38359;53.150;6.504;2022-10-15T06:15:16;156.43;;;69.80;;
52438;SDS011;38359;53.150;6.504;2022-10-15T06:25:43;161.32;;;70.85;;
52438;SDS011;38359;53.150;6.504;2022-10-15T06:36:09;164.07;;;72.80;;
52438;SDS011;38359;53.150;6.504;2022-10-15T06:46:37;168.07;;;72.13;;
52438;SDS011;38359;53.150;6.504;2022-10-15T06:57:03;175.18;;;74.00;;
52438;SDS011;38359;53.150;6.504;2022-10-15T07:07:29;168.98;;;74.20;;
52438;SDS011;38359;53.150;6.504;2022-10-15T07:17:55;163.07;;;73.72;;
52438;SDS011;38359;53.150;6.504;2022-10-15T07:28:25;174.95;;;76.40;;
52438;SDS011;38359;53.150;6.504;2022-10-15T07:38:51;155.30;;;70.97;;
52438;SDS011;38359;53.150;6.504;2022-10-15T07:49:17;166.35;;;75.43;;
52438;SDS011;38359;53.150;6.504;2022-10-15T07:59:42;153.70;;;70.88;;
52438;SDS011;38359;53.150;6.504;2022-10-15T08:10:08;149.77;;;69.22;;
52438;SDS011;38359;53.150;6.504;2022-10-15T08:20:36;137.23;;;66.13;;
52438;SDS011;38359;53.150;6.504;2022-10-15T08:31:03;139.68;;;69.70;;
52438;SDS011;38359;53.150;6.504;2022-10-15T08:41:35;143.02;;;65.85;;
52438;SDS011;38359;53.150;6.504;2022-10-15T08:52:24;137.15;;;69.80;;
52438;SDS011;38359;53.150;6.504;2022-10-15T09:02:57;125.53;;;64.05;;
52438;SDS011;38359;53.150;6.504;2022-10-15T09:13:30;116.10;;;60.47;;
52438;SDS011;38359;53.150;6.504;2022-10-15T09:24:04;108.20;;;56.63;;
52438;SDS011;38359;53.150;6.504;2022-10-15T09:34:34;93.85;;;48.70;;
52438;SDS011;38359;53.150;6.504;2022-10-15T09:45:13;96.63;;;49.45;;
52438;SDS011;38359;53.150;6.504;2022-10-15T10:06:52;108.05;;;52.58;;
52438;SDS011;38359;53.150;6.504;2022-10-15T10:17:24;112.43;;;51.85;;
52438;SDS011;38359;53.150;6.504;2022-10-15T10:27:55;89.65;;;44.90;;
52438;SDS011;38359;53.150;6.504;2022-10-15T10:38:32;70.45;;;35.80;;
52438;SDS011;38359;53.150;6.504;2022-10-15T10:49:01;53.63;;;28.73;;
52438;SDS011;38359;53.150;6.504;2022-10-15T10:59:29;44.25;;;26.05;;
52438;SDS011;38359;53.150;6.504;2022-10-15T11:10:11;41.83;;;23.60;;
52438;SDS011;38359;53.150;6.504;2022-10-15T11:53:36;38.78;;;22.42;;
52438;SDS011;38359;53.150;6.504;2022-10-15T12:04:37;40.70;;;22.63;;
52438;SDS011;38359;53.150;6.504;2022-10-15T12:36:57;30.65;;;19.15;;
52438;SDS011;38359;53.150;6.504;2022-10-15T12:58:31;38.38;;;24.25;;
52438;SDS011;38359;53.150;6.504;2022-10-15T13:19:35;48.10;;;28.15;;
52438;SDS011;38359;53.150;6.504;2022-10-15T13:40:33;44.60;;;24.83;;
52438;SDS011;38359;53.150;6.504;2022-10-15T13:50:59;46.17;;;26.42;;
52438;SDS011;38359;53.150;6.504;2022-10-15T14:01:29;41.45;;;23.95;;
52438;SDS011;38359;53.150;6.504;2022-10-15T14:11:58;40.47;;;22.10;;
52438;SDS011;38359;53.150;6.504;2022-10-15T14:22:25;37.45;;;21.25;;
52438;SDS011;38359;53.150;6.504;2022-10-15T14:32:52;39.90;;;21.77;;
52438;SDS011;38359;53.150;6.504;2022-10-15T14:43:18;32.90;;;18.55;;
52438;SDS011;38359;53.150;6.504;2022-10-15T14:53:44;31.73;;;17.02;;
52438;SDS011;38359;53.150;6.504;2022-10-15T15:04:29;22.38;;;13.60;;
52438;SDS011;38359;53.150;6.504;2022-10-15T15:15:12;21.83;;;12.75;;
52438;SDS011;38359;53.150;6.504;2022-10-15T15:25:40;23.13;;;12.48;;
52438;SDS011;38359;53.150;6.504;2022-10-15T15:36:08;12.57;;;9.00;;
52438;SDS011;38359;53.150;6.504;2022-10-15T15:46:37;12.45;;;8.65;;
52438;SDS011;38359;53.150;6.504;2022-10-15T15:57:03;10.52;;;7.80;;
52438;SDS011;38359;53.150;6.504;2022-10-15T16:07:29;14.95;;;7.07;;
52438;SDS011;38359;53.150;6.504;2022-10-15T16:17:55;8.43;;;5.72;;
52438;SDS011;38359;53.150;6.504;2022-10-15T16:28:20;9.48;;;6.97;;
52438;SDS011;38359;53.150;6.504;2022-10-15T16:38:46;10.10;;;8.10;;
52438;SDS011;38359;53.150;6.504;2022-10-15T16:49:12;12.70;;;9.27;;
52438;SDS011;38359;53.150;6.504;2022-10-15T16:59:38;15.10;;;10.05;;
52438;SDS011;38359;53.150;6.504;2022-10-15T17:10:04;14.25;;;9.57;;
52438;SDS011;38359;53.150;6.504;2022-10-15T17:20:30;23.60;;;10.15;;
52438;SDS011;38359;53.150;6.504;2022-10-15T17:31:02;13.85;;;7.32;;
52438;SDS011;38359;53.150;6.504;2022-10-15T17:41:33;13.10;;;5.03;;
52438;SDS011;38359;53.150;6.504;2022-10-15T17:52:00;19.75;;;5.28;;
52438;SDS011;38359;53.150;6.504;2022-10-15T18:02:26;18.65;;;5.28;;
52438;SDS011;38359;53.150;6.504;2022-10-15T18:12:52;17.48;;;4.43;;
52438;SDS011;38359;53.150;6.504;2022-10-15T18:23:18;10.75;;;3.60;;
52438;SDS011;38359;53.150;6.504;2022-10-15T18:33:45;14.50;;;3.88;;
52438;SDS011;38359;53.150;6.504;2022-10-15T18:44:16;19.30;;;2.85;;
52438;SDS011;38359;53.150;6.504;2022-10-15T18:54:44;13.70;;;2.25;;
52438;SDS011;38359;53.150;6.504;2022-10-15T19:05:10;11.98;;;3.42;;
52438;SDS011;38359;53.150;6.504;2022-10-15T19:15:36;15.85;;;3.10;;
52438;SDS011;38359;53.150;6.504;2022-10-15T19:26:05;11.63;;;2.92;;
52438;SDS011;38359;53.150;6.504;2022-10-15T19:36:34;11.43;;;2.90;;
52438;SDS011;38359;53.150;6.504;2022-10-15T19:47:02;14.93;;;2.60;;
52438;SDS011;38359;53.150;6.504;2022-10-15T19:57:28;10.82;;;2.67;;
52438;SDS011;38359;53.150;6.504;2022-10-15T20:07:54;10.07;;;2.40;;
52438;SDS011;38359;53.150;6.504;2022-10-15T20:18:20;12.73;;;2.55;;
52438;SDS011;38359;53.150;6.504;2022-10-15T20:28:46;25.55;;;3.30;;
52438;SDS011;38359;53.150;6.504;2022-10-15T20:39:12;20.65;;;3.45;;
52438;SDS011;38359;53.150;6.504;2022-10-15T20:49:38;13.93;;;2.95;;
52438;SDS011;38359;53.150;6.504;2022-10-15T21:00:09;21.63;;;3.17;;
52438;SDS011;38359;53.150;6.504;2022-10-15T21:10:36;20.55;;;3.10;;
52438;SDS011;38359;53.150;6.504;2022-10-15T21:21:02;13.23;;;3.45;;
52438;SDS011;38359;53.150;6.504;2022-10-15T21:31:31;13.93;;;2.65;;
52438;SDS011;38359;53.150;6.504;2022-10-15T21:41:56;14.75;;;3.33;;
52438;SDS011;38359;53.150;6.504;2022-10-15T21:52:22;17.45;;;3.03;;
52438;SDS011;38359;53.150;6.504;2022-10-15T22:02:48;14.75;;;2.60;;
52438;SDS011;38359;53.150;6.504;2022-10-15T22:13:14;16.80;;;2.60;;
52438;SDS011;38359;53.150;6.504;2022-10-15T22:23:43;11.93;;;2.33;;
52438;SDS011;38359;53.150;6.504;2022-10-15T22:34:12;28.98;;;2.83;;
52438;SDS011;38359;53.150;6.504;2022-10-15T22:44:37;12.15;;;2.30;;
52438;SDS011;38359;53.150;6.504;2022-10-15T22:55:03;9.50;;;2.17;;
52438;SDS011;38359;53.150;6.504;2022-10-15T23:05:30;13.80;;;2.60;;
52438;SDS011;38359;53.150;6.504;2022-10-15T23:16:03;22.50;;;2.42;;
52438;SDS011;38359;53.150;6.504;2022-10-15T23:26:37;9.50;;;2.30;;
52438;SDS011;38359;53.150;6.504;2022-10-15T23:37:03;11.90;;;3.22;;
52438;SDS011;38359;53.150;6.504;2022-10-15T23:47:29;13.35;;;2.45;;
52438;SDS011;38359;53.150;6.504;2022-10-15T23:57:55;11.05;;;2.25;;
